Time;durP1;ratioP1;P1;durP2;ratioP2;P2;SDS_P1;SDS_P2;PMS_P1;PMS_P2;Temp;Humidity;BMP_temperature;BMP_pressure;BME280_temperature;BME280_humidity;BME280_pressure;Samples;Min_cycle;Max_cycle;Signal;HPM_P1;HPM_P2
2021/11/03 07:40:54;;;;;;;91.78;60.45;;;205.20;2252.80;;;;;;5090929;27;20267;-77
2021/11/03 07:43:21;;;;;;;81.18;52.80;;;205.40;2252.80;;;;;;5091105;28;20020;-79
2021/11/03 07:45:48;;;;;;;75.13;51.95;;;205.50;2252.80;;;;;;5089432;28;20016;-78
2021/11/03 07:48:16;;;;;;;81.85;52.30;;;205.60;2252.80;;;;;;5090954;28;20097;-79
2021/11/03 07:50:45;;;;;;;83.05;54.85;;;205.60;2252.80;;;;;;5090579;28;20077;-78
2021/11/03 07:53:15;;;;;;;87.47;58.05;;;205.60;2252.80;;;;;;5090837;28;20012;-81
2021/11/03 07:55:49;;;;;;;105.75;79.60;;;205.70;2252.80;;;;;;5106740;28;20062;-81
2021/11/03 07:58:23;;;;;;;107.80;67.25;;;205.70;2252.80;;;;;;5106281;28;20444;-82
2021/11/03 08:03:31;;;;;;;119.97;81.93;;;230.50;2252.80;;;;;;5070679;28;20956;-81
2021/11/03 08:05:58;;;;;;;108.85;76.90;;;230.50;2252.80;;;;;;5070734;28;20025;-78
2021/11/03 08:08:26;;;;;;;106.57;74.15;;;230.70;2252.80;;;;;;5069735;28;20032;-78
2021/11/03 08:10:53;;;;;;;94.22;68.88;;;230.80;2252.80;;;;;;5069768;28;20052;-76
2021/11/03 08:13:22;;;;;;;97.03;70.80;;;230.90;2252.80;;;;;;5069250;28;20459;-75
2021/11/03 08:15:50;;;;;;;106.10;71.93;;;231.10;2252.80;;;;;;5070843;28;20104;-75
2021/11/03 08:18:19;;;;;;;96.68;68.95;;;231.30;2252.80;;;;;;5069548;28;20021;-75
2021/11/03 08:20:45;;;;;;;98.53;74.95;;;256.00;2252.80;;;;;;5069196;28;20017;-76
2021/11/03 08:23:13;;;;;;;111.65;82.07;;;231.30;2252.80;;;;;;5070661;28;20048;-76
2021/11/03 08:25:40;;;;;;;110.22;78.05;;;256.00;2252.80;;;;;;5069114;28;20060;-76
2021/11/03 08:28:06;;;;;;;98.95;70.55;;;256.20;2252.80;;;;;;5069263;28;20453;-76
2021/11/03 08:30:33;;;;;;;94.93;67.10;;;256.20;2252.80;;;;;;5069286;28;20401;-78
2021/11/03 08:33:05;;;;;;;89.15;68.15;;;256.50;2252.80;;;;;;5069859;28;20028;-78
2021/11/03 08:35:31;;;;;;;85.93;58.08;;;256.70;2252.80;;;;;;5069500;28;20085;-77
2021/11/03 08:38:03;;;;;;;75.57;58.53;;;256.90;2252.80;;;;;;5070194;28;20512;-78
2021/11/03 08:40:31;;;;;;;81.83;61.47;;;256.90;2252.80;;;;;;5068944;28;20021;-79
2021/11/03 08:43:00;;;;;;;75.68;59.95;;;281.60;2278.40;;;;;;5070346;28;20269;-78
2021/11/03 08:45:27;;;;;;;87.72;67.50;;;281.70;2278.40;;;;;;5070324;28;20021;-78
2021/11/03 08:47:53;;;;;;;73.05;57.13;;;281.80;2278.40;;;;;;5068776;28;20027;-78
2021/11/03 08:50:25;;;;;;;58.60;50.10;;;282.00;2278.40;;;;;;5068938;28;20107;-77
2021/11/03 08:52:52;;;;;;;69.82;50.70;;;282.10;2278.40;;;;;;5068936;28;20119;-77
2021/11/03 08:55:20;;;;;;;50.13;40.20;;;282.30;2278.40;;;;;;5069804;28;20112;-78
2021/11/03 08:57:45;;;;;;;51.95;40.42;;;282.40;2278.40;;;;;;5068813;28;20017;-78
2021/11/03 09:00:16;;;;;;;61.03;44.95;;;282.50;2278.40;;;;;;5068514;28;20035;-76
2021/11/03 09:02:42;;;;;;;56.45;45.10;;;307.20;2304.00;;;;;;5068020;28;20114;-76
2021/11/03 09:05:08;;;;;;;68.63;49.53;;;307.30;2304.00;;;;;;5068552;28;20021;-79
2021/11/03 09:07:35;;;;;;;70.38;52.67;;;307.40;2304.00;;;;;;5069469;28;20460;-78
2021/11/03 09:10:09;;;;;;;77.55;57.90;;;307.40;2304.00;;;;;;5069444;28;20047;-78
2021/11/03 09:12:35;;;;;;;59.10;45.38;;;307.50;2304.00;;;;;;5069683;28;20031;-78
2021/11/03 09:15:01;;;;;;;52.70;41.58;;;307.50;2304.00;;;;;;5055586;28;20032;-78
2021/11/03 09:17:27;;;;;;;57.33;44.92;;;307.60;2304.00;;;;;;5055464;28;20020;-75
2021/11/03 09:19:54;;;;;;;65.35;48.97;;;307.80;2304.00;;;;;;5056405;28;20150;-76
2021/11/03 09:22:21;;;;;;;63.45;49.80;;;307.80;2304.00;;;;;;5054605;28;20106;-77
2021/11/03 09:24:47;;;;;;;88.88;64.07;;;307.90;2304.00;;;;;;5055107;28;20453;-77
2021/11/03 09:27:14;;;;;;;62.08;48.58;;;308.10;2304.00;;;;;;5054913;28;20021;-77
2021/11/03 09:29:45;;;;;;;63.38;45.25;;;308.10;2304.00;;;;;;5054672;28;20021;-78
2021/11/03 09:32:14;;;;;;;69.32;61.40;;;332.90;2329.60;;;;;;5054920;28;20028;-78
2021/11/03 09:34:45;;;;;;;62.50;46.85;;;333.00;2329.60;;;;;;5056083;28;20028;-75
2021/11/03 09:37:13;;;;;;;58.17;45.13;;;333.10;2329.60;;;;;;5054593;28;20231;-77
2021/11/03 09:39:39;;;;;;;63.05;49.55;;;333.20;2329.60;;;;;;5056193;28;20021;-76
2021/11/03 09:42:06;;;;;;;61.38;46.65;;;333.30;2329.60;;;;;;5054583;28;20025;-76
2021/11/03 09:44:34;;;;;;;57.42;43.70;;;333.30;2329.60;;;;;;5055574;28;20035;-78
2021/11/03 09:47:25;;;;;;;57.08;45.45;;;333.50;2329.60;;;;;;5054610;28;20043;-77
2021/11/03 09:50:12;;;;;;;56.05;44.38;;;333.60;2329.60;;;;;;5054347;28;20047;-76
2021/11/03 09:52:42;;;;;;;67.65;52.20;;;333.60;2329.60;;;;;;5054558;28;20028;-76
2021/11/03 09:55:19;;;;;;;69.55;55.53;;;333.70;2329.60;;;;;;5054465;28;20021;-77
2021/11/03 09:57:52;;;;;;;105.53;75.82;;;333.70;2329.60;;;;;;5054137;28;20139;-77
2021/11/03 10:00:27;;;;;;;148.80;97.82;;;358.40;2329.60;;;;;;5054512;28;20024;-76
2021/11/03 10:03:25;;;;;;;92.13;58.47;;;358.50;2329.60;;;;;;5055511;28;20045;-74
2021/11/03 10:06:23;;;;;;;100.88;76.57;;;358.50;2329.60;;;;;;5035289;28;20386;-75
2021/11/03 10:08:51;;;;;;;65.85;47.25;;;358.70;2329.60;;;;;;5054214;28;20024;-77
2021/11/03 10:11:21;;;;;;;55.92;42.58;;;358.90;2329.60;;;;;;5055038;28;20017;-76
2021/11/03 10:13:48;;;;;;;112.22;71.57;;;359.00;2329.60;;;;;;5054133;28;20365;-75
2021/11/03 10:16:16;;;;;;;121.75;94.18;;;359.10;2329.60;;;;;;5055369;28;20025;-76
2021/11/03 10:19:00;;;;;;;68.45;51.70;;;359.10;2329.60;;;;;;5053735;28;20116;-78
2021/11/03 10:21:32;;;;;;;79.10;55.55;;;359.30;2329.60;;;;;;5055281;28;20457;-78
2021/11/03 10:24:00;;;;;;;46.10;33.53;;;359.30;2329.60;;;;;;5053783;28;20025;-76
2021/11/03 10:26:30;;;;;;;44.58;34.08;;;359.30;2329.60;;;;;;5052695;28;20075;-77
2021/11/03 10:29:12;;;;;;;56.08;39.90;;;384.10;2329.60;;;;;;5055168;28;20021;-78
2021/11/03 10:31:45;;;;;;;67.82;52.28;;;384.10;2329.60;;;;;;5053565;28;20032;-77
2021/11/03 10:34:24;;;;;;;67.47;46.63;;;384.20;2329.60;;;;;;5055310;28;20079;-78
2021/11/03 10:37:15;;;;;;;60.67;43.45;;;384.30;2329.60;;;;;;5054060;28;20039;-76
2021/11/03 10:39:59;;;;;;;47.53;37.97;;;384.40;2329.60;;;;;;5053427;28;20024;-77
2021/11/03 10:42:31;;;;;;;57.90;38.22;;;384.60;2329.60;;;;;;5053710;28;20036;-77
2021/11/03 10:45:22;;;;;;;47.97;38.33;;;384.70;2329.60;;;;;;5053636;28;20031;-77
2021/11/03 10:48:06;;;;;;;38.03;31.60;;;384.90;2329.60;;;;;;5053236;28;20021;-78
2021/11/03 10:50:40;;;;;;;34.72;24.75;;;409.70;2355.20;;;;;;5053599;28;20031;-77
2021/11/03 10:53:17;;;;;;;33.85;28.30;;;409.70;2355.20;;;;;;5053175;28;20029;-78
2021/11/03 10:55:49;;;;;;;34.03;27.35;;;409.70;2355.20;;;;;;5053497;28;20017;-77
2021/11/03 10:58:31;;;;;;;37.90;26.70;;;409.70;2355.20;;;;;;5054400;28;20414;-78
2021/11/03 11:01:08;;;;;;;28.05;22.98;;;409.70;2355.20;;;;;;5053082;28;20029;-78
2021/11/03 11:04:04;;;;;;;36.53;27.60;;;409.70;2355.20;;;;;;5053331;28;20485;-76
2021/11/03 11:06:52;;;;;;;35.22;28.17;;;409.70;2355.20;;;;;;5052957;28;20413;-78
2021/11/03 11:09:36;;;;;;;40.78;28.83;;;409.80;2355.20;;;;;;5053234;28;20021;-78
2021/11/03 11:12:31;;;;;;;40.08;29.35;;;409.80;2355.20;;;;;;5053043;28;20471;-76
2021/11/03 11:15:01;;;;;;;42.67;32.30;;;409.80;2355.20;;;;;;5053957;28;20020;-78
2021/11/03 11:17:52;;;;;;;33.72;23.02;;;409.70;2355.20;;;;;;5054595;28;20056;-80
2021/11/03 11:20:28;;;;;;;31.10;24.10;;;409.70;2355.20;;;;;;5054225;28;20021;-76
2021/11/03 11:23:19;;;;;;;32.05;26.10;;;409.70;2355.20;;;;;;5053851;28;20055;-77
2021/11/03 11:26:12;;;;;;;34.58;25.98;;;409.70;2355.20;;;;;;5052754;28;20082;-77
2021/11/03 11:28:56;;;;;;;;;;;409.70;2355.20;;;;;;5052977;28;20044;-76
2021/11/03 11:31:31;;;;;;;30.77;23.63;;;409.80;2355.20;;;;;;5053995;28;19901;-76
2021/11/03 11:34:00;;;;;;;36.15;28.88;;;409.70;2355.20;;;;;;5052717;28;20017;-77
2021/11/03 11:36:34;;;;;;;40.15;31.70;;;409.70;2355.20;;;;;;5052263;28;20056;-77
2021/11/03 11:39:27;;;;;;;45.70;33.67;;;409.70;2355.20;;;;;;5052770;28;20021;-78
2021/11/03 11:42:15;;;;;;;48.17;36.63;;;409.80;2355.20;;;;;;5052258;28;20029;-78
2021/11/03 11:45:13;;;;;;;46.83;36.40;;;409.80;2355.20;;;;;;5052481;28;20048;-77
2021/11/03 11:48:01;;;;;;;48.58;39.72;;;409.90;2355.20;;;;;;5052661;28;20021;-77
2021/11/03 11:50:37;;;;;;;55.10;43.72;;;410.00;2355.20;;;;;;5053488;28;20028;-78
2021/11/03 11:53:17;;;;;;;54.80;41.53;;;410.20;2355.20;;;;;;5053819;28;20100;-78
2021/11/03 11:56:07;;;;;;;47.05;35.60;;;410.20;2355.20;;;;;;5052168;28;20021;-77
2021/11/03 11:58:35;;;;;;;39.13;28.90;;;410.30;2355.20;;;;;;5052375;28;20071;-80
2021/11/03 12:01:16;;;;;;;36.38;27.17;;;410.40;2355.20;;;;;;5053756;28;20099;-79
2021/11/03 12:04:00;;;;;;;35.42;28.00;;;410.50;2355.20;;;;;;5053204;28;20458;-77
2021/11/03 12:06:42;;;;;;;36.92;30.55;;;410.50;2355.20;;;;;;5055182;28;20020;-80
2021/11/03 12:09:40;;;;;;;38.20;31.42;;;410.50;2355.20;;;;;;5053863;28;20027;-77
2021/11/03 12:12:05;;;;;;;38.10;27.05;;;410.50;2355.20;;;;;;5056243;28;20029;-80
2021/11/03 12:14:38;;;;;;;36.05;26.85;;;410.50;2355.20;;;;;;5054744;28;20146;-77
2021/11/03 12:17:07;;;;;;;;;;;410.50;2355.20;;;;;;5053176;28;20056;-78
2021/11/03 12:19:39;;;;;;;34.25;25.98;;;410.50;2355.20;;;;;;5056607;28;19901;-76
2021/11/03 12:22:10;;;;;;;32.20;22.13;;;435.20;2355.20;;;;;;5055306;28;20021;-77
2021/11/03 12:24:49;;;;;;;41.63;25.75;;;435.20;2355.20;;;;;;5053628;28;20056;-76
2021/11/03 12:27:29;;;;;;;40.65;31.40;;;435.20;2355.20;;;;;;5054001;28;20025;-76
2021/11/03 12:29:59;;;;;;;66.13;46.30;;;435.20;2355.20;;;;;;5052946;28;20021;-76
2021/11/03 12:32:28;;;;;;;69.45;50.80;;;435.20;2355.20;;;;;;5051898;28;20418;-79
2021/11/03 12:35:24;;;;;;;78.47;60.88;;;435.20;2355.20;;;;;;5053581;28;20021;-77
2021/11/03 12:37:52;;;;;;;91.60;72.28;;;435.20;2355.20;;;;;;5051631;28;20029;-77
2021/11/03 12:40:44;;;;;;;121.75;77.95;;;435.30;2355.20;;;;;;5053502;28;20059;-76
2021/11/03 12:43:20;;;;;;;84.82;46.08;;;435.30;2355.20;;;;;;5052701;28;20515;-76
2021/11/03 12:46:06;;;;;;;68.50;35.08;;;435.30;2355.20;;;;;;5051750;28;20025;-76
2021/11/03 12:48:40;;;;;;;55.03;30.90;;;435.40;2355.20;;;;;;5052905;28;20108;-77
2021/11/03 12:51:28;;;;;;;42.15;28.05;;;435.40;2355.20;;;;;;5056043;28;20025;-77
2021/11/03 12:54:14;;;;;;;44.42;30.63;;;435.40;2355.20;;;;;;5057134;28;20021;-77
2021/11/03 12:56:51;;;;;;;58.50;40.97;;;435.40;2355.20;;;;;;5055716;28;20356;-77
2021/11/03 12:59:23;;;;;;;51.20;38.88;;;435.40;2355.20;;;;;;5056600;28;20021;-76
2021/11/03 13:01:53;;;;;;;57.38;39.35;;;435.40;2355.20;;;;;;5055223;28;20044;-76
2021/11/03 13:04:43;;;;;;;57.78;40.60;;;435.40;2355.20;;;;;;5055527;28;20028;-76
2021/11/03 13:07:26;;;;;;;47.33;30.83;;;435.30;2355.20;;;;;;5054908;28;20021;-76
2021/11/03 13:10:00;;;;;;;;;;;435.30;2355.20;;;;;;5055797;28;20360;-76
2021/11/03 13:12:29;;;;;;;41.22;29.55;;;435.30;2355.20;;;;;;5055287;28;19901;-77
2021/11/03 13:15:06;;;;;;;33.42;24.20;;;435.30;2355.20;;;;;;5055146;28;20017;-77
2021/11/03 13:17:35;;;;;;;17.40;11.75;;;435.30;2355.20;;;;;;5055259;28;20029;-76
2021/11/03 13:20:05;;;;;;;13.90;9.13;;;435.30;2355.20;;;;;;5054901;28;20024;-76
2021/11/03 13:22:47;;;;;;;15.15;9.02;;;435.40;2355.20;;;;;;5055120;28;20037;-76
2021/11/03 13:25:38;;;;;;;34.70;25.17;;;435.50;2355.20;;;;;;5055080;28;20368;-76
2021/11/03 13:28:29;;;;;;;32.17;22.08;;;435.60;2355.20;;;;;;5049192;28;20031;-76
2021/11/03 13:31:04;;;;;;;46.15;34.72;;;435.60;2355.20;;;;;;5055037;28;20021;-77
2021/11/03 13:33:36;;;;;;;69.20;58.70;;;435.60;2355.20;;;;;;5055888;28;20392;-80
2021/11/03 13:36:16;;;;;;;40.00;28.30;;;435.50;2355.20;;;;;;5055963;28;20481;-76
2021/11/03 13:39:06;;;;;;;32.92;20.35;;;435.40;2355.20;;;;;;5056404;28;20016;-78
2021/11/03 13:41:39;;;;;;;26.27;15.07;;;435.50;2355.20;;;;;;5054377;28;20029;-76
2021/11/03 13:44:31;;;;;;;13.90;10.82;;;435.40;2355.20;;;;;;5054802;28;20021;-76
2021/11/03 13:47:20;;;;;;;25.77;14.87;;;435.50;2355.20;;;;;;5054384;28;20037;-79
2021/11/03 13:50:08;;;;;;;24.42;13.20;;;435.50;2355.20;;;;;;5054298;28;20021;-76
2021/11/03 13:52:34;;;;;;;21.67;16.40;;;435.50;2355.20;;;;;;5055592;28;20036;-79
2021/11/03 13:55:00;;;;;;;15.95;9.32;;;435.60;2355.20;;;;;;5054232;28;20021;-77
2021/11/03 13:57:34;;;;;;;21.77;12.70;;;435.60;2355.20;;;;;;5054662;28;20078;-77
2021/11/03 14:00:15;;;;;;;20.77;11.52;;;435.60;2355.20;;;;;;5055960;28;20067;-76
2021/11/03 14:02:41;;;;;;;21.42;14.95;;;435.60;2355.20;;;;;;5053887;28;20067;-78
2021/11/03 14:05:40;;;;;;;25.77;13.60;;;435.50;2355.20;;;;;;5054388;28;20021;-77
2021/11/03 14:08:26;;;;;;;19.20;12.30;;;435.40;2355.20;;;;;;5055870;28;20047;-76
2021/11/03 14:10:52;;;;;;;19.75;11.27;;;435.30;2355.20;;;;;;5055358;28;20457;-77
2021/11/03 14:13:18;;;;;;;28.00;14.35;;;435.30;2355.20;;;;;;5055637;28;20067;-79
2021/11/03 14:15:44;;;;;;;33.63;16.67;;;435.30;2355.20;;;;;;5053848;28;20021;-76
2021/11/03 14:18:11;;;;;;;33.53;21.17;;;435.30;2355.20;;;;;;5055348;28;20021;-75
2021/11/03 14:20:48;;;;;;;35.08;21.73;;;435.20;2355.20;;;;;;5055332;28;20104;-78
2021/11/03 14:23:17;;;;;;;34.13;20.38;;;410.50;2355.20;;;;;;5054898;28;20029;-80
2021/11/03 14:25:44;;;;;;;28.33;17.85;;;410.50;2355.20;;;;;;5053607;28;20028;-78
2021/11/03 14:28:13;;;;;;;27.52;18.73;;;410.20;2355.20;;;;;;5053830;28;20115;-77
2021/11/03 14:30:48;;;;;;;37.75;21.77;;;410.30;2355.20;;;;;;5053461;28;20357;-78
2021/11/03 14:33:42;;;;;;;28.23;20.35;;;410.30;2355.20;;;;;;5053931;28;20048;-80
2021/11/03 14:36:13;;;;;;;34.10;21.80;;;410.20;2355.20;;;;;;5053400;28;20081;-77
2021/11/03 14:38:41;;;;;;;39.50;27.33;;;410.30;2355.20;;;;;;5054694;28;20021;-77
2021/11/03 14:41:09;;;;;;;23.48;14.32;;;410.30;2355.20;;;;;;5054617;28;20017;-76
2021/11/03 14:43:35;;;;;;;33.75;23.00;;;410.50;2355.20;;;;;;5053328;28;20368;-77
2021/11/03 14:46:27;;;;;;;39.47;32.15;;;410.50;2355.20;;;;;;5053528;28;20182;-77
2021/11/03 14:48:54;;;;;;;45.22;30.70;;;410.50;2355.20;;;;;;5048350;28;20538;-77
2021/11/03 14:51:22;;;;;;;54.28;36.58;;;410.30;2355.20;;;;;;5054403;28;20151;-78
2021/11/03 14:53:49;;;;;;;68.47;50.28;;;410.20;2355.20;;;;;;5054787;28;20017;-76
2021/11/03 14:56:17;;;;;;;63.13;46.85;;;410.20;2355.20;;;;;;5053336;28;20056;-76
2021/11/03 14:58:43;;;;;;;63.90;48.75;;;410.20;2355.20;;;;;;5053015;28;20449;-78
2021/11/03 15:01:30;;;;;;;71.30;49.55;;;410.00;2355.20;;;;;;5052992;28;20028;-79
2021/11/03 15:04:07;;;;;;;68.13;49.47;;;410.00;2355.20;;;;;;5053172;28;20029;-77
2021/11/03 15:06:33;;;;;;;78.45;57.58;;;409.80;2355.20;;;;;;5054003;28;20380;-78
2021/11/03 15:08:58;;;;;;;106.30;71.95;;;409.80;2355.20;;;;;;5053308;28;20025;-77
2021/11/03 15:11:24;;;;;;;96.22;69.43;;;409.70;2355.20;;;;;;5053677;28;20021;-79
2021/11/03 15:13:50;;;;;;;95.70;67.93;;;409.70;2355.20;;;;;;5052653;28;20020;-76
2021/11/03 15:16:25;;;;;;;93.03;69.80;;;409.70;2355.20;;;;;;5053005;28;20021;-76
2021/11/03 15:18:51;;;;;;;85.40;62.58;;;409.60;2355.20;;;;;;5054014;28;20031;-78
2021/11/03 15:21:18;;;;;;;86.55;54.15;;;409.70;2355.20;;;;;;5052817;28;20067;-77
2021/11/03 15:23:45;;;;;;;67.38;46.45;;;409.80;2355.20;;;;;;5054113;28;20096;-76
2021/11/03 15:26:11;;;;;;;68.82;49.03;;;410.00;2355.20;;;;;;5053594;28;20157;-78
2021/11/03 15:28:37;;;;;;;36.97;25.25;;;410.00;2355.20;;;;;;5052825;28;20461;-78
2021/11/03 15:31:24;;;;;;;34.63;23.85;;;410.20;2355.20;;;;;;5052772;28;20051;-78
2021/11/03 15:33:51;;;;;;;39.25;26.65;;;410.10;2355.20;;;;;;5052516;28;20116;-76
2021/11/03 15:36:18;;;;;;;54.88;35.05;;;410.20;2355.20;;;;;;5052681;28;20025;-76
2021/11/03 15:38:51;;;;;;;32.05;20.00;;;410.20;2355.20;;;;;;5053625;28;20468;-76
2021/11/03 15:41:18;;;;;;;52.13;37.40;;;410.20;2355.20;;;;;;5052449;28;20075;-76
2021/11/03 15:43:45;;;;;;;50.63;36.47;;;410.20;2355.20;;;;;;5052552;28;20037;-76
2021/11/03 15:46:22;;;;;;;49.83;32.75;;;410.20;2355.20;;;;;;5052452;28;20021;-78
2021/11/03 15:48:49;;;;;;;67.90;52.47;;;410.20;2355.20;;;;;;5053244;28;20529;-78
2021/11/03 15:51:15;;;;;;;110.40;79.43;;;410.10;2355.20;;;;;;5054353;28;20453;-76
2021/11/03 15:53:41;;;;;;;109.82;89.15;;;410.00;2355.20;;;;;;5053623;28;20388;-76
2021/11/03 15:56:08;;;;;;;73.47;56.80;;;409.90;2355.20;;;;;;5052487;28;20032;-76
2021/11/03 15:58:34;;;;;;;104.72;83.78;;;409.80;2355.20;;;;;;5053647;28;20086;-78
2021/11/03 16:01:24;;;;;;;92.05;70.50;;;409.70;2355.20;;;;;;5052272;28;20025;-78
2021/11/03 16:04:00;;;;;;;79.15;62.63;;;409.70;2355.20;;;;;;5050751;28;20044;-77
2021/11/03 16:06:30;;;;;;;79.38;61.00;;;409.70;2355.20;;;;;;5052313;28;20042;-77
2021/11/03 16:08:57;;;;;;;78.70;54.65;;;384.90;2329.60;;;;;;5051979;28;20025;-77
2021/11/03 16:11:23;;;;;;;48.80;36.38;;;384.90;2329.60;;;;;;5052265;28;20074;-77
2021/11/03 16:13:49;;;;;;;49.28;37.95;;;384.90;2329.60;;;;;;5052272;28;20116;-78
2021/11/03 16:16:15;;;;;;;47.75;35.38;;;384.90;2329.60;;;;;;5053195;28;20019;-77
2021/11/03 16:18:41;;;;;;;53.75;39.92;;;384.90;2329.60;;;;;;5053666;28;20083;-77
2021/11/03 16:21:25;;;;;;;53.58;40.00;;;384.90;2329.60;;;;;;5053306;28;20017;-76
2021/11/03 16:23:53;;;;;;;64.55;51.40;;;384.90;2329.60;;;;;;5054994;28;20082;-76
2021/11/03 16:26:19;;;;;;;76.80;58.72;;;384.70;2329.60;;;;;;5056457;28;20107;-76
2021/11/03 16:28:45;;;;;;;74.35;54.80;;;384.70;2329.60;;;;;;5057101;28;20052;-77
2021/11/03 16:31:12;;;;;;;60.92;46.38;;;384.60;2329.60;;;;;;5057087;28;20021;-77
2021/11/03 16:33:37;;;;;;;86.13;53.72;;;384.60;2329.60;;;;;;5056132;28;20372;-77
2021/11/03 16:36:07;;;;;;;63.58;44.42;;;384.60;2329.60;;;;;;5057028;28;20017;-77
2021/11/03 16:38:34;;;;;;;49.08;32.95;;;384.60;2329.60;;;;;;5055945;28;20349;-76
2021/11/03 16:41:27;;;;;;;39.13;26.85;;;384.60;2329.60;;;;;;5057051;28;20047;-77
2021/11/03 16:43:56;;;;;;;29.35;22.17;;;384.70;2329.60;;;;;;5055551;28;20053;-77
2021/11/03 16:46:23;;;;;;;24.00;16.42;;;384.70;2329.60;;;;;;5056820;28;20020;-76
2021/11/03 16:48:49;;;;;;;29.00;19.08;;;384.90;2329.60;;;;;;5056134;28;20036;-81
2021/11/03 16:51:15;;;;;;;27.55;18.13;;;409.60;2355.20;;;;;;5056819;28;20021;-76
2021/11/03 16:53:46;;;;;;;35.80;25.20;;;409.70;2355.20;;;;;;5055869;28;20116;-76
2021/11/03 16:56:18;;;;;;;21.85;15.27;;;409.70;2355.20;;;;;;5057002;28;20082;-78
2021/11/03 16:58:45;;;;;;;18.40;11.65;;;409.80;2355.20;;;;;;5055187;28;20028;-77
2021/11/03 17:01:15;;;;;;;21.70;14.57;;;410.00;2355.20;;;;;;5055294;28;20066;-76
2021/11/03 17:03:42;;;;;;;24.42;13.70;;;410.00;2355.20;;;;;;5055418;28;20029;-76
2021/11/03 17:06:27;;;;;;;13.10;9.18;;;410.00;2355.20;;;;;;5055903;28;20029;-75
2021/11/03 17:08:56;;;;;;;13.15;7.70;;;410.30;2355.20;;;;;;5055440;28;20483;-77
2021/11/03 17:11:34;;;;;;;13.80;8.25;;;410.30;2355.20;;;;;;5056393;28;20029;-78
2021/11/03 17:14:02;;;;;;;14.38;9.45;;;410.40;2355.20;;;;;;5055345;28;20460;-79
2021/11/03 17:16:28;;;;;;;26.08;19.35;;;410.50;2355.20;;;;;;5055404;28;20136;-76
2021/11/03 17:18:54;;;;;;;18.95;12.35;;;410.50;2355.20;;;;;;5054982;28;20025;-77
2021/11/03 17:21:22;;;;;;;15.48;11.20;;;410.50;2355.20;;;;;;5061555;28;20035;-75
2021/11/03 17:23:48;;;;;;;20.67;11.98;;;435.20;2355.20;;;;;;5070085;28;20032;-75
2021/11/03 17:26:20;;;;;;;12.15;7.80;;;435.20;2355.20;;;;;;5066201;28;20369;-74
2021/11/03 17:28:46;;;;;;;21.42;13.45;;;435.20;2355.20;;;;;;5062572;28;20059;-77
2021/11/03 17:31:12;;;;;;;22.42;13.63;;;410.50;2355.20;;;;;;5056581;28;20021;-80
2021/11/03 17:33:38;;;;;;;15.52;9.27;;;435.20;2355.20;;;;;;5055857;28;20472;-79
2021/11/03 17:36:04;;;;;;;16.90;10.18;;;435.30;2355.20;;;;;;5055770;28;20021;-76
2021/11/03 17:38:31;;;;;;;19.88;14.45;;;435.30;2355.20;;;;;;5054573;28;20021;-77
2021/11/03 17:41:02;;;;;;;14.35;10.25;;;435.20;2355.20;;;;;;5054732;28;20057;-79
2021/11/03 17:43:36;;;;;;;15.82;8.70;;;435.20;2355.20;;;;;;5054751;28;20098;-78
2021/11/03 17:46:03;;;;;;;15.40;10.18;;;435.20;2355.20;;;;;;5054395;28;20029;-77
2021/11/03 17:48:33;;;;;;;24.77;15.07;;;435.20;2355.20;;;;;;5056178;28;20028;-79
2021/11/03 17:50:59;;;;;;;31.58;22.83;;;410.50;2355.20;;;;;;5054704;28;20025;-80
2021/11/03 17:53:27;;;;;;;24.30;18.48;;;410.50;2355.20;;;;;;5054277;28;20021;-78
2021/11/03 17:56:20;;;;;;;21.27;15.68;;;410.50;2355.20;;;;;;5054475;28;20017;-77
2021/11/03 17:58:47;;;;;;;26.65;20.42;;;435.20;2355.20;;;;;;5054580;28;20040;-78
2021/11/03 18:01:16;;;;;;;49.88;31.08;;;435.30;2355.20;;;;;;5053851;28;20064;-78
2021/11/03 18:03:42;;;;;;;28.67;20.98;;;435.30;2355.20;;;;;;5055615;28;20028;-77
2021/11/03 18:06:09;;;;;;;20.85;15.38;;;435.20;2355.20;;;;;;5054363;28;20025;-79
2021/11/03 18:08:35;;;;;;;13.63;10.38;;;435.20;2355.20;;;;;;5055010;28;20024;-78
2021/11/03 18:11:22;;;;;;;22.27;13.82;;;435.30;2355.20;;;;;;5054245;28;20102;-77
2021/11/03 18:13:50;;;;;;;32.38;21.10;;;435.20;2355.20;;;;;;5054510;28;20040;-78
2021/11/03 18:16:16;;;;;;;20.20;13.30;;;410.50;2355.20;;;;;;5055028;28;20021;-77
2021/11/03 18:18:43;;;;;;;25.60;17.17;;;435.20;2355.20;;;;;;5054110;28;20039;-77
2021/11/03 18:21:09;;;;;;;17.30;10.52;;;435.20;2355.20;;;;;;5054960;28;20025;-78
2021/11/03 18:23:34;;;;;;;10.50;5.68;;;410.50;2355.20;;;;;;5053883;28;20029;-79
2021/11/03 18:26:18;;;;;;;22.05;11.20;;;435.20;2355.20;;;;;;5053908;28;20112;-78
2021/11/03 18:28:44;;;;;;;14.10;9.85;;;435.20;2355.20;;;;;;5053660;28;20020;-76
2021/11/03 18:31:18;;;;;;;16.00;11.48;;;410.50;2355.20;;;;;;5055464;28;20021;-76
2021/11/03 18:33:45;;;;;;;21.00;12.38;;;410.50;2355.20;;;;;;5053658;28;20098;-74
2021/11/03 18:36:12;;;;;;;21.92;14.18;;;410.50;2355.20;;;;;;5054949;28;20100;-76
2021/11/03 18:38:42;;;;;;;25.80;18.02;;;410.50;2355.20;;;;;;5053855;28;20021;-75
2021/11/03 18:41:19;;;;;;;26.05;17.05;;;410.30;2355.20;;;;;;5054916;28;20044;-78
2021/11/03 18:43:46;;;;;;;29.80;19.67;;;410.30;2355.20;;;;;;5054612;28;20021;-79
2021/11/03 18:46:12;;;;;;;25.85;17.92;;;410.30;2355.20;;;;;;5052877;28;20416;-77
2021/11/03 18:48:39;;;;;;;31.50;24.23;;;410.20;2355.20;;;;;;5053216;28;20070;-75
2021/11/03 18:51:19;;;;;;;39.85;27.25;;;410.20;2355.20;;;;;;5053463;28;20024;-77
2021/11/03 18:53:48;;;;;;;49.38;30.30;;;410.10;2355.20;;;;;;5054733;28;20025;-77
2021/11/03 18:56:14;;;;;;;38.17;26.42;;;410.10;2355.20;;;;;;5053018;28;20457;-77
2021/11/03 18:58:40;;;;;;;35.40;21.23;;;410.00;2355.20;;;;;;5054526;28;20020;-76
2021/11/03 19:01:08;;;;;;;26.27;15.63;;;410.00;2355.20;;;;;;5053042;28;20021;-77
2021/11/03 19:03:36;;;;;;;28.33;19.45;;;410.00;2355.20;;;;;;5054066;28;20055;-77
2021/11/03 19:06:19;;;;;;;29.15;20.13;;;410.00;2355.20;;;;;;5053092;28;20033;-76
2021/11/03 19:08:46;;;;;;;18.05;13.38;;;409.90;2355.20;;;;;;5054372;28;20023;-79
2021/11/03 19:11:13;;;;;;;21.65;14.90;;;409.90;2355.20;;;;;;5052820;28;20043;-77
2021/11/03 19:13:40;;;;;;;24.58;16.90;;;409.90;2355.20;;;;;;5052722;28;20534;-77
2021/11/03 19:16:07;;;;;;;25.80;16.65;;;410.00;2355.20;;;;;;5052996;28;20115;-78
2021/11/03 19:18:33;;;;;;;16.77;10.57;;;384.90;2329.60;;;;;;5052649;28;20403;-77
2021/11/03 19:21:02;;;;;;;12.45;9.25;;;410.00;2355.20;;;;;;5054130;28;20070;-77
2021/11/03 19:23:34;;;;;;;14.10;7.78;;;410.10;2355.20;;;;;;5052558;28;20025;-79
2021/11/03 19:26:08;;;;;;;10.60;7.78;;;410.30;2355.20;;;;;;5054362;28;20021;-78
2021/11/03 19:28:34;;;;;;;18.70;9.20;;;410.30;2355.20;;;;;;5052828;28;20029;-76
2021/11/03 19:31:01;;;;;;;21.40;10.68;;;410.30;2355.20;;;;;;5052132;28;20025;-80
2021/11/03 19:33:27;;;;;;;18.95;8.98;;;410.30;2355.20;;;;;;5052715;28;20036;-77
2021/11/03 19:35:57;;;;;;;12.90;10.48;;;410.50;2355.20;;;;;;5052671;28;20025;-80
2021/11/03 19:38:35;;;;;;;14.32;9.38;;;410.50;2355.20;;;;;;5052478;28;20021;-76
2021/11/03 19:41:04;;;;;;;13.98;7.88;;;435.30;2355.20;;;;;;5052702;28;20411;-76
2021/11/03 19:43:32;;;;;;;16.85;9.40;;;435.40;2355.20;;;;;;5053722;28;20108;-78
2021/11/03 19:46:00;;;;;;;16.10;10.27;;;435.50;2355.20;;;;;;5053512;28;20536;-80
2021/11/03 19:48:26;;;;;;;11.60;5.72;;;435.60;2355.20;;;;;;5052565;28;20056;-80
2021/11/03 19:51:00;;;;;;;10.77;5.63;;;435.80;2355.20;;;;;;5052456;28;20029;-76
2021/11/03 19:53:41;;;;;;;12.73;7.10;;;435.90;2355.20;;;;;;5052185;28;20043;-78
2021/11/03 19:56:11;;;;;;;8.48;4.70;;;435.90;2355.20;;;;;;5052522;28;20025;-80
2021/11/03 19:58:37;;;;;;;12.00;6.70;;;436.10;2355.20;;;;;;5052027;28;20021;-78
2021/11/03 20:01:03;;;;;;;16.23;11.23;;;436.10;2355.20;;;;;;5052031;28;20079;-78
2021/11/03 20:03:29;;;;;;;16.80;7.45;;;435.90;2355.20;;;;;;5052145;28;20041;-78
2021/11/03 20:05:57;;;;;;;10.70;6.00;;;436.10;2355.20;;;;;;5053525;28;20028;-80
2021/11/03 20:08:27;;;;;;;18.83;8.70;;;436.00;2355.20;;;;;;5053967;28;20100;-79
2021/11/03 20:10:56;;;;;;;11.35;6.63;;;435.90;2355.20;;;;;;5053606;28;20405;-79